sensor_id;sensor_type;location;lat;lon;timestamp;temperature;humidity
12276;DHT22;6200;48.144;11.424;2023-11-19T00:02:19;5.40;99.90
12276;DHT22;6200;48.144;11.424;2023-11-19T00:04:44;5.40;99.90
12276;DHT22;6200;48.144;11.424;2023-11-19T00:07:10;5.50;99.90
12276;DHT22;6200;48.144;11.424;2023-11-19T00:09:37;5.50;99.90
12276;DHT22;6200;48.144;11.424;2023-11-19T00:12:04;5.50;99.90
12276;DHT22;6200;48.144;11.424;2023-11-19T00:14:30;5.50;99.90
12276;DHT22;6200;48.144;11.424;2023-11-19T00:16:56;5.50;99.90
12276;DHT22;6200;48.144;11.424;2023-11-19T00:19:21;5.60;99.90
12276;DHT22;6200;48.144;11.424;2023-11-19T00:21:47;5.60;99.90
12276;DHT22;6200;48.144;11.424;2023-11-19T00:24:12;5.60;99.90
12276;DHT22;6200;48.144;11.424;2023-11-19T00:26:41;5.60;99.90
12276;DHT22;6200;48.144;11.424;2023-11-19T00:29:07;5.70;99.90
12276;DHT22;6200;48.144;11.424;2023-11-19T00:31:32;5.70;99.90
12276;DHT22;6200;48.144;11.424;2023-11-19T00:33:58;5.70;99.90
12276;DHT22;6200;48.144;11.424;2023-11-19T00:36:23;5.70;99.90
12276;DHT22;6200;48.144;11.424;2023-11-19T00:38:49;5.80;99.90
12276;DHT22;6200;48.144;11.424;2023-11-19T00:41:15;5.80;99.90
12276;DHT22;6200;48.144;11.424;2023-11-19T00:43:42;5.80;99.90
12276;DHT22;6200;48.144;11.424;2023-11-19T00:46:08;5.90;99.90
12276;DHT22;6200;48.144;11.424;2023-11-19T00:48:33;5.90;99.90
12276;DHT22;6200;48.144;11.424;2023-11-19T00:50:59;5.90;99.90
12276;DHT22;6200;48.144;11.424;2023-11-19T00:53:25;6.00;99.90
12276;DHT22;6200;48.144;11.424;2023-11-19T00:55:50;6.00;99.90
12276;DHT22;6200;48.144;11.424;2023-11-19T00:58:16;6.00;99.90
12276;DHT22;6200;48.144;11.424;2023-11-19T01:00:43;6.10;99.90
12276;DHT22;6200;48.144;11.424;2023-11-19T01:03:09;6.10;99.90
12276;DHT22;6200;48.144;11.424;2023-11-19T01:05:34;6.10;99.90
12276;DHT22;6200;48.144;11.424;2023-11-19T01:08:00;6.10;99.90
12276;DHT22;6200;48.144;11.424;2023-11-19T01:10:25;6.10;99.90
12276;DHT22;6200;48.144;11.424;2023-11-19T01:12:51;6.10;99.90
12276;DHT22;6200;48.144;11.424;2023-11-19T01:15:17;6.10;99.90
12276;DHT22;6200;48.144;11.424;2023-11-19T01:17:44;6.20;99.90
12276;DHT22;6200;48.144;11.424;2023-11-19T01:20:10;6.20;99.90
12276;DHT22;6200;48.144;11.424;2023-11-19T01:22:38;6.20;99.90
12276;DHT22;6200;48.144;11.424;2023-11-19T01:25:04;6.20;99.90
12276;DHT22;6200;48.144;11.424;2023-11-19T01:27:31;6.20;99.90
12276;DHT22;6200;48.144;11.424;2023-11-19T01:29:56;6.20;99.90
12276;DHT22;6200;48.144;11.424;2023-11-19T01:32:22;6.30;99.90
12276;DHT22;6200;48.144;11.424;2023-11-19T01:34:49;6.30;99.90
12276;DHT22;6200;48.144;11.424;2023-11-19T01:37:15;6.30;99.90
12276;DHT22;6200;48.144;11.424;2023-11-19T01:39:43;6.30;99.90
12276;DHT22;6200;48.144;11.424;2023-11-19T01:42:09;6.40;99.90
12276;DHT22;6200;48.144;11.424;2023-11-19T01:44:35;6.40;99.90
12276;DHT22;6200;48.144;11.424;2023-11-19T01:47:00;6.50;99.90
12276;DHT22;6200;48.144;11.424;2023-11-19T01:49:26;6.50;99.90
12276;DHT22;6200;48.144;11.424;2023-11-19T01:51:52;6.50;99.90
12276;DHT22;6200;48.144;11.424;2023-11-19T01:54:18;6.60;99.90
12276;DHT22;6200;48.144;11.424;2023-11-19T01:56:44;6.70;99.90
12276;DHT22;6200;48.144;11.424;2023-11-19T01:59:11;6.70;99.90
12276;DHT22;6200;48.144;11.424;2023-11-19T02:01:38;6.80;99.90
12276;DHT22;6200;48.144;11.424;2023-11-19T02:04:06;6.80;99.90
12276;DHT22;6200;48.144;11.424;2023-11-19T02:06:33;6.80;99.90
12276;DHT22;6200;48.144;11.424;2023-11-19T02:09:00;6.90;99.90
12276;DHT22;6200;48.144;11.424;2023-11-19T02:11:26;7.00;99.90
12276;DHT22;6200;48.144;11.424;2023-11-19T02:13:55;7.10;99.90
12276;DHT22;6200;48.144;11.424;2023-11-19T02:16:21;7.20;99.90
12276;DHT22;6200;48.144;11.424;2023-11-19T02:18:47;7.30;99.90
12276;DHT22;6200;48.144;11.424;2023-11-19T02:21:12;7.30;99.90
12276;DHT22;6200;48.144;11.424;2023-11-19T02:23:40;7.40;99.90
12276;DHT22;6200;48.144;11.424;2023-11-19T02:26:37;7.50;99.90
12276;DHT22;6200;48.144;11.424;2023-11-19T02:29:05;7.50;99.90
12276;DHT22;6200;48.144;11.424;2023-11-19T02:31:32;7.60;99.90
12276;DHT22;6200;48.144;11.424;2023-11-19T02:33:57;7.70;99.90
12276;DHT22;6200;48.144;11.424;2023-11-19T02:36:25;7.80;99.90
12276;DHT22;6200;48.144;11.424;2023-11-19T02:38:51;7.90;99.90
12276;DHT22;6200;48.144;11.424;2023-11-19T02:41:16;8.00;99.90
12276;DHT22;6200;48.144;11.424;2023-11-19T02:43:42;8.00;99.90
12276;DHT22;6200;48.144;11.424;2023-11-19T02:46:07;8.10;99.90
12276;DHT22;6200;48.144;11.424;2023-11-19T02:48:37;8.10;99.90
12276;DHT22;6200;48.144;11.424;2023-11-19T02:51:03;8.10;99.90
12276;DHT22;6200;48.144;11.424;2023-11-19T02:53:32;8.20;99.90
12276;DHT22;6200;48.144;11.424;2023-11-19T02:55:57;8.20;99.90
12276;DHT22;6200;48.144;11.424;2023-11-19T02:58:31;8.20;99.90
12276;DHT22;6200;48.144;11.424;2023-11-19T03:00:57;8.30;99.90
12276;DHT22;6200;48.144;11.424;2023-11-19T03:03:26;8.30;99.90
12276;DHT22;6200;48.144;11.424;2023-11-19T03:06:07;8.40;99.90
12276;DHT22;6200;48.144;11.424;2023-11-19T03:08:34;8.40;99.90
12276;DHT22;6200;48.144;11.424;2023-11-19T03:11:00;8.40;99.90
12276;DHT22;6200;48.144;11.424;2023-11-19T03:13:26;8.40;99.90
12276;DHT22;6200;48.144;11.424;2023-11-19T03:15:52;8.50;99.90
12276;DHT22;6200;48.144;11.424;2023-11-19T03:18:19;8.50;99.90
12276;DHT22;6200;48.144;11.424;2023-11-19T03:20:46;8.60;99.90
12276;DHT22;6200;48.144;11.424;2023-11-19T03:23:12;8.60;99.90
12276;DHT22;6200;48.144;11.424;2023-11-19T03:25:38;8.60;99.90
12276;DHT22;6200;48.144;11.424;2023-11-19T03:28:04;8.70;99.90
12276;DHT22;6200;48.144;11.424;2023-11-19T03:30:30;8.70;99.90
12276;DHT22;6200;48.144;11.424;2023-11-19T03:32:59;8.80;99.90
12276;DHT22;6200;48.144;11.424;2023-11-19T03:35:28;8.80;99.90
12276;DHT22;6200;48.144;11.424;2023-11-19T03:37:53;8.90;99.90
12276;DHT22;6200;48.144;11.424;2023-11-19T03:40:19;8.90;99.90
12276;DHT22;6200;48.144;11.424;2023-11-19T03:42:48;8.90;99.90
12276;DHT22;6200;48.144;11.424;2023-11-19T03:45:14;9.00;99.90
12276;DHT22;6200;48.144;11.424;2023-11-19T03:47:41;9.10;99.90
12276;DHT22;6200;48.144;11.424;2023-11-19T03:50:07;9.10;99.90
12276;DHT22;6200;48.144;11.424;2023-11-19T03:52:36;9.10;99.90
12276;DHT22;6200;48.144;11.424;2023-11-19T03:55:01;9.20;99.90
12276;DHT22;6200;48.144;11.424;2023-11-19T03:57:28;9.20;99.90
12276;DHT22;6200;48.144;11.424;2023-11-19T03:59:54;9.30;99.90
12276;DHT22;6200;48.144;11.424;2023-11-19T04:02:21;9.30;99.90
12276;DHT22;6200;48.144;11.424;2023-11-19T04:04:46;9.30;99.90
12276;DHT22;6200;48.144;11.424;2023-11-19T04:07:12;9.30;99.90
12276;DHT22;6200;48.144;11.424;2023-11-19T04:09:37;9.30;99.90
12276;DHT22;6200;48.144;11.424;2023-11-19T04:12:03;9.30;99.90
12276;DHT22;6200;48.144;11.424;2023-11-19T04:14:29;9.40;99.90
12276;DHT22;6200;48.144;11.424;2023-11-19T04:16:54;9.40;99.90
12276;DHT22;6200;48.144;11.424;2023-11-19T04:19:20;9.40;99.90
12276;DHT22;6200;48.144;11.424;2023-11-19T04:21:46;9.40;99.90
12276;DHT22;6200;48.144;11.424;2023-11-19T04:24:12;9.40;99.90
12276;DHT22;6200;48.144;11.424;2023-11-19T04:26:42;9.50;99.90
12276;DHT22;6200;48.144;11.424;2023-11-19T04:29:09;9.50;99.90
12276;DHT22;6200;48.144;11.424;2023-11-19T04:31:36;9.50;99.90
12276;DHT22;6200;48.144;11.424;2023-11-19T04:34:02;9.50;99.90
12276;DHT22;6200;48.144;11.424;2023-11-19T04:36:27;9.50;99.90
12276;DHT22;6200;48.144;11.424;2023-11-19T04:38:55;9.50;99.90
12276;DHT22;6200;48.144;11.424;2023-11-19T04:41:20;9.60;99.90
12276;DHT22;6200;48.144;11.424;2023-11-19T04:43:46;9.60;99.90
12276;DHT22;6200;48.144;11.424;2023-11-19T04:46:12;9.60;99.90
12276;DHT22;6200;48.144;11.424;2023-11-19T04:48:37;9.60;99.90
12276;DHT22;6200;48.144;11.424;2023-11-19T04:51:05;9.70;99.90
12276;DHT22;6200;48.144;11.424;2023-11-19T04:53:30;9.70;99.90
12276;DHT22;6200;48.144;11.424;2023-11-19T04:55:56;9.70;99.90
12276;DHT22;6200;48.144;11.424;2023-11-19T04:58:21;9.70;99.90
12276;DHT22;6200;48.144;11.424;2023-11-19T05:00:47;9.70;99.90
12276;DHT22;6200;48.144;11.424;2023-11-19T05:03:13;9.80;99.90
12276;DHT22;6200;48.144;11.424;2023-11-19T05:05:38;9.80;99.90
12276;DHT22;6200;48.144;11.424;2023-11-19T05:08:04;9.80;99.90
12276;DHT22;6200;48.144;11.424;2023-11-19T05:10:30;9.80;99.90
12276;DHT22;6200;48.144;11.424;2023-11-19T05:12:56;9.80;99.90
12276;DHT22;6200;48.144;11.424;2023-11-19T05:15:22;9.80;99.90
12276;DHT22;6200;48.144;11.424;2023-11-19T05:17:47;9.80;99.90
12276;DHT22;6200;48.144;11.424;2023-11-19T05:20:13;9.80;99.90
12276;DHT22;6200;48.144;11.424;2023-11-19T05:22:42;9.80;99.90
12276;DHT22;6200;48.144;11.424;2023-11-19T05:25:08;9.80;99.90
12276;DHT22;6200;48.144;11.424;2023-11-19T05:27:35;9.80;99.90
12276;DHT22;6200;48.144;11.424;2023-11-19T05:30:02;9.80;99.90
12276;DHT22;6200;48.144;11.424;2023-11-19T05:32:28;9.80;99.90
12276;DHT22;6200;48.144;11.424;2023-11-19T05:34:53;9.80;99.90
12276;DHT22;6200;48.144;11.424;2023-11-19T05:37:19;9.80;99.90
12276;DHT22;6200;48.144;11.424;2023-11-19T05:39:45;9.80;99.90
12276;DHT22;6200;48.144;11.424;2023-11-19T05:42:10;9.80;99.90
12276;DHT22;6200;48.144;11.424;2023-11-19T05:44:36;9.80;99.90
12276;DHT22;6200;48.144;11.424;2023-11-19T05:47:03;9.80;99.90
12276;DHT22;6200;48.144;11.424;2023-11-19T05:49:29;9.80;99.90
12276;DHT22;6200;48.144;11.424;2023-11-19T05:51:55;9.80;99.90
12276;DHT22;6200;48.144;11.424;2023-11-19T05:54:21;9.80;99.90
12276;DHT22;6200;48.144;11.424;2023-11-19T05:56:49;9.80;99.90
12276;DHT22;6200;48.144;11.424;2023-11-19T05:59:15;9.80;99.90
12276;DHT22;6200;48.144;11.424;2023-11-19T06:01:43;9.80;99.90
12276;DHT22;6200;48.144;11.424;2023-11-19T06:04:09;9.80;99.90
12276;DHT22;6200;48.144;11.424;2023-11-19T06:06:35;9.80;99.90
12276;DHT22;6200;48.144;11.424;2023-11-19T06:09:01;9.80;99.90
12276;DHT22;6200;48.144;11.424;2023-11-19T06:11:27;9.90;99.90
12276;DHT22;6200;48.144;11.424;2023-11-19T06:13:53;9.80;99.90
12276;DHT22;6200;48.144;11.424;2023-11-19T06:16:19;9.80;99.90
12276;DHT22;6200;48.144;11.424;2023-11-19T06:18:45;9.90;99.90
12276;DHT22;6200;48.144;11.424;2023-11-19T06:21:11;9.90;99.90
12276;DHT22;6200;48.144;11.424;2023-11-19T06:23:37;9.90;99.90
12276;DHT22;6200;48.144;11.424;2023-11-19T06:26:03;9.90;99.90
12276;DHT22;6200;48.144;11.424;2023-11-19T06:28:28;9.90;99.90
12276;DHT22;6200;48.144;11.424;2023-11-19T06:30:54;9.90;99.90
12276;DHT22;6200;48.144;11.424;2023-11-19T06:33:19;9.90;99.90
12276;DHT22;6200;48.144;11.424;2023-11-19T06:35:45;9.90;99.90
12276;DHT22;6200;48.144;11.424;2023-11-19T06:38:11;9.90;99.90
12276;DHT22;6200;48.144;11.424;2023-11-19T06:40:36;10.00;99.90
12276;DHT22;6200;48.144;11.424;2023-11-19T06:43:03;10.00;99.90
12276;DHT22;6200;48.144;11.424;2023-11-19T06:45:33;10.00;99.90
12276;DHT22;6200;48.144;11.424;2023-11-19T06:48:02;10.00;99.90
12276;DHT22;6200;48.144;11.424;2023-11-19T06:50:31;10.00;99.90
12276;DHT22;6200;48.144;11.424;2023-11-19T06:52:57;10.00;99.90
12276;DHT22;6200;48.144;11.424;2023-11-19T06:55:23;10.10;99.90
12276;DHT22;6200;48.144;11.424;2023-11-19T06:57:48;10.10;99.90
12276;DHT22;6200;48.144;11.424;2023-11-19T07:00:14;10.10;99.90
12276;DHT22;6200;48.144;11.424;2023-11-19T07:02:40;10.10;99.90
12276;DHT22;6200;48.144;11.424;2023-11-19T07:05:06;10.20;99.90
12276;DHT22;6200;48.144;11.424;2023-11-19T07:07:32;10.20;99.90
12276;DHT22;6200;48.144;11.424;2023-11-19T07:09:58;10.20;99.90
12276;DHT22;6200;48.144;11.424;2023-11-19T07:12:24;10.20;99.90
12276;DHT22;6200;48.144;11.424;2023-11-19T07:14:52;10.20;99.90
12276;DHT22;6200;48.144;11.424;2023-11-19T07:17:18;10.20;99.90
12276;DHT22;6200;48.144;11.424;2023-11-19T07:19:46;10.30;99.90
12276;DHT22;6200;48.144;11.424;2023-11-19T07:22:11;10.30;99.90
12276;DHT22;6200;48.144;11.424;2023-11-19T07:24:39;10.30;99.90
12276;DHT22;6200;48.144;11.424;2023-11-19T07:27:07;10.40;99.90
12276;DHT22;6200;48.144;11.424;2023-11-19T07:29:34;10.40;99.90
12276;DHT22;6200;48.144;11.424;2023-11-19T07:32:00;10.40;99.90
12276;DHT22;6200;48.144;11.424;2023-11-19T07:34:27;10.50;99.90
12276;DHT22;6200;48.144;11.424;2023-11-19T07:36:53;10.50;99.90
12276;DHT22;6200;48.144;11.424;2023-11-19T07:39:19;10.50;99.90
12276;DHT22;6200;48.144;11.424;2023-11-19T07:41:46;10.50;99.90
12276;DHT22;6200;48.144;11.424;2023-11-19T07:44:11;10.60;99.90
12276;DHT22;6200;48.144;11.424;2023-11-19T07:46:37;10.60;99.90
12276;DHT22;6200;48.144;11.424;2023-11-19T07:49:02;10.60;99.90
12276;DHT22;6200;48.144;11.424;2023-11-19T07:51:28;10.60;99.90
12276;DHT22;6200;48.144;11.424;2023-11-19T07:53:53;10.60;99.90
12276;DHT22;6200;48.144;11.424;2023-11-19T07:56:19;10.70;99.90
12276;DHT22;6200;48.144;11.424;2023-11-19T07:58:44;10.70;99.90
12276;DHT22;6200;48.144;11.424;2023-11-19T08:01:10;10.70;99.90
12276;DHT22;6200;48.144;11.424;2023-11-19T08:03:35;10.70;99.90
12276;DHT22;6200;48.144;11.424;2023-11-19T08:06:02;10.70;99.90
12276;DHT22;6200;48.144;11.424;2023-11-19T08:08:28;10.70;99.90
12276;DHT22;6200;48.144;11.424;2023-11-19T08:10:55;10.80;99.90
12276;DHT22;6200;48.144;11.424;2023-11-19T08:13:23;10.80;99.90
12276;DHT22;6200;48.144;11.424;2023-11-19T08:15:48;10.80;99.90
12276;DHT22;6200;48.144;11.424;2023-11-19T08:18:14;10.90;99.90
12276;DHT22;6200;48.144;11.424;2023-11-19T08:20:39;10.90;99.90
12276;DHT22;6200;48.144;11.424;2023-11-19T08:23:06;11.00;99.90
12276;DHT22;6200;48.144;11.424;2023-11-19T08:25:32;11.10;99.90
12276;DHT22;6200;48.144;11.424;2023-11-19T08:27:59;11.10;99.90
12276;DHT22;6200;48.144;11.424;2023-11-19T08:30:25;11.20;99.90
12276;DHT22;6200;48.144;11.424;2023-11-19T08:32:51;11.30;99.90
12276;DHT22;6200;48.144;11.424;2023-11-19T08:35:16;11.30;99.90
12276;DHT22;6200;48.144;11.424;2023-11-19T08:37:42;11.30;99.90
12276;DHT22;6200;48.144;11.424;2023-11-19T08:40:08;11.40;99.90
12276;DHT22;6200;48.144;11.424;2023-11-19T08:42:33;12.30;99.90
12276;DHT22;6200;48.144;11.424;2023-11-19T08:44:59;11.40;99.90
12276;DHT22;6200;48.144;11.424;2023-11-19T08:47:24;11.50;99.90
12276;DHT22;6200;48.144;11.424;2023-11-19T08:49:53;11.50;99.90
12276;DHT22;6200;48.144;11.424;2023-11-19T08:52:19;11.60;99.90
12276;DHT22;6200;48.144;11.424;2023-11-19T08:54:44;11.70;99.90
12276;DHT22;6200;48.144;11.424;2023-11-19T08:57:10;11.70;99.90
12276;DHT22;6200;48.144;11.424;2023-11-19T08:59:35;11.80;99.90
12276;DHT22;6200;48.144;11.424;2023-11-19T09:02:03;11.70;99.90
12276;DHT22;6200;48.144;11.424;2023-11-19T09:04:29;11.70;99.90
12276;DHT22;6200;48.144;11.424;2023-11-19T09:06:54;11.70;99.90
12276;DHT22;6200;48.144;11.424;2023-11-19T09:09:21;11.70;99.90
12276;DHT22;6200;48.144;11.424;2023-11-19T09:11:46;11.70;99.90
12276;DHT22;6200;48.144;11.424;2023-11-19T09:14:12;11.70;99.90
12276;DHT22;6200;48.144;11.424;2023-11-19T09:16:37;11.70;99.90
12276;DHT22;6200;48.144;11.424;2023-11-19T09:19:03;11.70;99.90
12276;DHT22;6200;48.144;11.424;2023-11-19T09:21:29;11.70;99.90
12276;DHT22;6200;48.144;11.424;2023-11-19T09:23:59;11.80;99.90
12276;DHT22;6200;48.144;11.424;2023-11-19T09:26:25;11.90;99.90
12276;DHT22;6200;48.144;11.424;2023-11-19T09:28:50;12.00;99.90
12276;DHT22;6200;48.144;11.424;2023-11-19T09:31:17;12.00;99.90
12276;DHT22;6200;48.144;11.424;2023-11-19T09:33:43;12.10;99.90
12276;DHT22;6200;48.144;11.424;2023-11-19T09:36:08;12.10;99.90
12276;DHT22;6200;48.144;11.424;2023-11-19T09:38:35;12.10;99.90
12276;DHT22;6200;48.144;11.424;2023-11-19T09:41:05;12.10;99.90
12276;DHT22;6200;48.144;11.424;2023-11-19T09:43:34;12.10;99.90
12276;DHT22;6200;48.144;11.424;2023-11-19T09:46:09;12.10;99.90
12276;DHT22;6200;48.144;11.424;2023-11-19T09:48:37;12.20;99.90
12276;DHT22;6200;48.144;11.424;2023-11-19T09:51:04;12.20;99.90
12276;DHT22;6200;48.144;11.424;2023-11-19T09:53:31;12.30;99.90
12276;DHT22;6200;48.144;11.424;2023-11-19T09:56:05;12.40;99.90
12276;DHT22;6200;48.144;11.424;2023-11-19T09:58:32;12.60;99.90
12276;DHT22;6200;48.144;11.424;2023-11-19T10:00:59;12.80;99.90
12276;DHT22;6200;48.144;11.424;2023-11-19T10:03:27;12.90;99.90
12276;DHT22;6200;48.144;11.424;2023-11-19T10:05:55;13.00;99.90
12276;DHT22;6200;48.144;11.424;2023-11-19T10:08:21;13.00;99.90
12276;DHT22;6200;48.144;11.424;2023-11-19T10:10:47;13.10;99.90
12276;DHT22;6200;48.144;11.424;2023-11-19T10:13:13;13.10;99.90
12276;DHT22;6200;48.144;11.424;2023-11-19T10:15:40;13.20;99.90
12276;DHT22;6200;48.144;11.424;2023-11-19T10:18:06;13.40;99.90
12276;DHT22;6200;48.144;11.424;2023-11-19T10:20:40;13.40;99.90
12276;DHT22;6200;48.144;11.424;2023-11-19T10:23:06;13.50;99.90
12276;DHT22;6200;48.144;11.424;2023-11-19T10:25:33;13.80;99.90
12276;DHT22;6200;48.144;11.424;2023-11-19T10:27:59;13.90;99.90
12276;DHT22;6200;48.144;11.424;2023-11-19T10:30:27;14.10;99.90
12276;DHT22;6200;48.144;11.424;2023-11-19T10:33:06;14.20;99.90
12276;DHT22;6200;48.144;11.424;2023-11-19T10:35:33;14.50;99.90
12276;DHT22;6200;48.144;11.424;2023-11-19T10:38:21;14.60;99.90
12276;DHT22;6200;48.144;11.424;2023-11-19T10:40:48;14.80;99.90
12276;DHT22;6200;48.144;11.424;2023-11-19T10:43:14;14.80;99.90
12276;DHT22;6200;48.144;11.424;2023-11-19T10:45:40;15.00;99.90
12276;DHT22;6200;48.144;11.424;2023-11-19T10:48:06;15.20;99.90
12276;DHT22;6200;48.144;11.424;2023-11-19T10:50:36;15.40;99.90
12276;DHT22;6200;48.144;11.424;2023-11-19T10:53:03;15.50;99.90
12276;DHT22;6200;48.144;11.424;2023-11-19T10:55:33;15.90;99.90
12276;DHT22;6200;48.144;11.424;2023-11-19T10:58:02;15.10;99.90
12276;DHT22;6200;48.144;11.424;2023-11-19T11:00:48;14.90;99.90
12276;DHT22;6200;48.144;11.424;2023-11-19T11:03:18;14.70;99.90
12276;DHT22;6200;48.144;11.424;2023-11-19T11:05:48;14.70;99.90
12276;DHT22;6200;48.144;11.424;2023-11-19T11:08:15;14.70;99.90
12276;DHT22;6200;48.144;11.424;2023-11-19T11:10:45;14.90;99.90
12276;DHT22;6200;48.144;11.424;2023-11-19T11:13:13;15.00;99.90
12276;DHT22;6200;48.144;11.424;2023-11-19T11:15:39;15.20;99.90
12276;DHT22;6200;48.144;11.424;2023-11-19T11:18:08;15.50;99.90
12276;DHT22;6200;48.144;11.424;2023-11-19T11:20:34;16.40;99.90
12276;DHT22;6200;48.144;11.424;2023-11-19T11:29:16;15.20;99.90
12276;DHT22;6200;48.144;11.424;2023-11-19T11:32:02;15.30;99.90
12276;DHT22;6200;48.144;11.424;2023-11-19T11:37:37;15.40;99.90
12276;DHT22;6200;48.144;11.424;2023-11-19T11:40:04;15.50;99.90
12276;DHT22;6200;48.144;11.424;2023-11-19T11:42:37;15.40;99.90
12276;DHT22;6200;48.144;11.424;2023-11-19T11:45:07;15.40;99.90
12276;DHT22;6200;48.144;11.424;2023-11-19T11:50:23;15.60;99.90
12276;DHT22;6200;48.144;11.424;2023-11-19T11:55:28;16.00;99.90
12276;DHT22;6200;48.144;11.424;2023-11-19T11:57:55;16.00;99.90
12276;DHT22;6200;48.144;11.424;2023-11-19T12:00:30;16.00;99.90
12276;DHT22;6200;48.144;11.424;2023-11-19T12:03:00;15.80;99.90
12276;DHT22;6200;48.144;11.424;2023-11-19T12:05:27;15.80;99.90
12276;DHT22;6200;48.144;11.424;2023-11-19T12:08:00;15.80;99.90
12276;DHT22;6200;48.144;11.424;2023-11-19T12:10:29;15.90;99.90
12276;DHT22;6200;48.144;11.424;2023-11-19T12:13:00;15.90;99.90
12276;DHT22;6200;48.144;11.424;2023-11-19T12:15:26;16.00;99.90
12276;DHT22;6200;48.144;11.424;2023-11-19T12:17:54;16.00;99.90
12276;DHT22;6200;48.144;11.424;2023-11-19T12:20:25;15.90;99.90
12276;DHT22;6200;48.144;11.424;2023-11-19T12:22:52;15.90;99.90
12276;DHT22;6200;48.144;11.424;2023-11-19T12:25:20;15.80;99.90
12276;DHT22;6200;48.144;11.424;2023-11-19T12:27:50;15.80;99.90
12276;DHT22;6200;48.144;11.424;2023-11-19T12:30:23;15.30;99.90
12276;DHT22;6200;48.144;11.424;2023-11-19T12:32:53;15.30;99.90
12276;DHT22;6200;48.144;11.424;2023-11-19T12:35:22;15.20;99.90
12276;DHT22;6200;48.144;11.424;2023-11-19T12:37:50;15.20;99.90
12276;DHT22;6200;48.144;11.424;2023-11-19T12:42:46;15.20;99.90
12276;DHT22;6200;48.144;11.424;2023-11-19T12:45:12;15.20;99.90
12276;DHT22;6200;48.144;11.424;2023-11-19T12:47:40;15.10;99.90
12276;DHT22;6200;48.144;11.424;2023-11-19T12:50:06;15.20;99.90
12276;DHT22;6200;48.144;11.424;2023-11-19T12:52:34;15.10;99.90
12276;DHT22;6200;48.144;11.424;2023-11-19T12:55:00;15.00;99.90
12276;DHT22;6200;48.144;11.424;2023-11-19T12:57:41;14.90;99.90
12276;DHT22;6200;48.144;11.424;2023-11-19T13:00:17;14.90;99.90
12276;DHT22;6200;48.144;11.424;2023-11-19T13:08:07;14.60;99.90
12276;DHT22;6200;48.144;11.424;2023-11-19T13:10:49;14.60;99.90
12276;DHT22;6200;48.144;11.424;2023-11-19T13:13:16;14.50;99.90
12276;DHT22;6200;48.144;11.424;2023-11-19T13:15:42;15.20;99.90
12276;DHT22;6200;48.144;11.424;2023-11-19T13:18:10;14.40;99.90
12276;DHT22;6200;48.144;11.424;2023-11-19T13:20:36;14.30;99.90
12276;DHT22;6200;48.144;11.424;2023-11-19T13:23:03;14.30;99.90
12276;DHT22;6200;48.144;11.424;2023-11-19T13:25:30;14.30;99.90
12276;DHT22;6200;48.144;11.424;2023-11-19T13:27:56;14.20;99.90
12276;DHT22;6200;48.144;11.424;2023-11-19T13:30:23;14.20;99.90
12276;DHT22;6200;48.144;11.424;2023-11-19T13:32:50;14.20;99.90
12276;DHT22;6200;48.144;11.424;2023-11-19T13:35:16;14.20;99.90
12276;DHT22;6200;48.144;11.424;2023-11-19T13:37:42;14.20;99.90
12276;DHT22;6200;48.144;11.424;2023-11-19T13:40:09;14.10;99.90
12276;DHT22;6200;48.144;11.424;2023-11-19T13:42:36;14.10;99.90
12276;DHT22;6200;48.144;11.424;2023-11-19T13:45:03;14.10;99.90
12276;DHT22;6200;48.144;11.424;2023-11-19T13:47:28;14.10;99.90
12276;DHT22;6200;48.144;11.424;2023-11-19T13:49:54;14.00;99.90
12276;DHT22;6200;48.144;11.424;2023-11-19T13:52:19;14.00;99.90
12276;DHT22;6200;48.144;11.424;2023-11-19T13:54:45;13.90;99.90
12276;DHT22;6200;48.144;11.424;2023-11-19T13:57:10;13.90;99.90
12276;DHT22;6200;48.144;11.424;2023-11-19T13:59:40;13.90;99.90
12276;DHT22;6200;48.144;11.424;2023-11-19T14:02:06;13.90;99.90
12276;DHT22;6200;48.144;11.424;2023-11-19T14:04:33;13.90;99.90
12276;DHT22;6200;48.144;11.424;2023-11-19T14:06:58;13.80;99.90
12276;DHT22;6200;48.144;11.424;2023-11-19T14:09:24;13.80;99.90
12276;DHT22;6200;48.144;11.424;2023-11-19T14:11:49;13.80;99.90
12276;DHT22;6200;48.144;11.424;2023-11-19T14:14:16;13.80;99.90
12276;DHT22;6200;48.144;11.424;2023-11-19T14:16:42;13.80;99.90
12276;DHT22;6200;48.144;11.424;2023-11-19T14:19:07;13.80;99.90
12276;DHT22;6200;48.144;11.424;2023-11-19T14:21:33;13.80;99.90
12276;DHT22;6200;48.144;11.424;2023-11-19T14:23:59;13.70;99.90
12276;DHT22;6200;48.144;11.424;2023-11-19T14:26:24;13.70;99.90
12276;DHT22;6200;48.144;11.424;2023-11-19T14:28:50;13.70;99.90
12276;DHT22;6200;48.144;11.424;2023-11-19T14:31:15;13.70;99.90
12276;DHT22;6200;48.144;11.424;2023-11-19T14:33:41;13.80;99.90
12276;DHT22;6200;48.144;11.424;2023-11-19T14:36:06;13.70;99.90
12276;DHT22;6200;48.144;11.424;2023-11-19T14:38:32;13.80;99.90
12276;DHT22;6200;48.144;11.424;2023-11-19T14:40:58;13.70;99.90
12276;DHT22;6200;48.144;11.424;2023-11-19T14:43:25;13.70;99.90
12276;DHT22;6200;48.144;11.424;2023-11-19T14:45:51;13.70;99.90
12276;DHT22;6200;48.144;11.424;2023-11-19T14:48:17;13.60;99.90
12276;DHT22;6200;48.144;11.424;2023-11-19T14:50:43;13.50;99.90
12276;DHT22;6200;48.144;11.424;2023-11-19T14:53:10;13.40;99.90
12276;DHT22;6200;48.144;11.424;2023-11-19T14:55:35;13.40;99.90
12276;DHT22;6200;48.144;11.424;2023-11-19T14:58:01;13.30;99.90
12276;DHT22;6200;48.144;11.424;2023-11-19T15:00:26;13.20;99.90
12276;DHT22;6200;48.144;11.424;2023-11-19T15:02:52;13.20;99.90
12276;DHT22;6200;48.144;11.424;2023-11-19T15:05:17;13.20;99.90
12276;DHT22;6200;48.144;11.424;2023-11-19T15:07:43;13.20;99.90
12276;DHT22;6200;48.144;11.424;2023-11-19T15:10:09;13.10;99.90
12276;DHT22;6200;48.144;11.424;2023-11-19T15:12:38;13.10;99.90
12276;DHT22;6200;48.144;11.424;2023-11-19T15:15:09;13.00;99.90
12276;DHT22;6200;48.144;11.424;2023-11-19T15:17:39;13.00;99.90
12276;DHT22;6200;48.144;11.424;2023-11-19T15:20:05;13.00;99.90
12276;DHT22;6200;48.144;11.424;2023-11-19T15:22:31;12.90;99.90
12276;DHT22;6200;48.144;11.424;2023-11-19T15:24:57;12.90;99.90
12276;DHT22;6200;48.144;11.424;2023-11-19T15:27:22;12.80;99.90
12276;DHT22;6200;48.144;11.424;2023-11-19T15:29:48;12.70;99.90
12276;DHT22;6200;48.144;11.424;2023-11-19T15:32:14;12.70;99.90
12276;DHT22;6200;48.144;11.424;2023-11-19T15:34:39;12.60;99.90
12276;DHT22;6200;48.144;11.424;2023-11-19T15:37:07;12.50;99.90
12276;DHT22;6200;48.144;11.424;2023-11-19T15:39:33;12.50;99.90
12276;DHT22;6200;48.144;11.424;2023-11-19T15:42:01;12.40;99.90
12276;DHT22;6200;48.144;11.424;2023-11-19T15:44:27;12.40;99.90
12276;DHT22;6200;48.144;11.424;2023-11-19T15:46:53;12.40;99.90
12276;DHT22;6200;48.144;11.424;2023-11-19T15:49:19;12.30;99.90
12276;DHT22;6200;48.144;11.424;2023-11-19T15:51:44;12.30;99.90
12276;DHT22;6200;48.144;11.424;2023-11-19T15:54:10;12.30;99.90
12276;DHT22;6200;48.144;11.424;2023-11-19T15:56:36;12.20;99.90
12276;DHT22;6200;48.144;11.424;2023-11-19T15:59:02;12.20;99.90